sensor_id;sensor_type;location;lat;lon;timestamp;pressure;altitude;pressure_sealevel;temperature;humidity
3096;BME280;1558;42.700;23.360;2023-01-25T00:00:51;96446.31;;;1.72;100.00
3096;BME280;1558;42.700;23.360;2023-01-25T00:03:19;96472.53;;;1.85;100.00
3096;BME280;1558;42.700;23.360;2023-01-25T00:05:47;96466.63;;;1.83;100.00
3096;BME280;1558;42.700;23.360;2023-01-25T00:08:15;96460.69;;;1.76;100.00
3096;BME280;1558;42.700;23.360;2023-01-25T00:10:43;96473.66;;;1.89;100.00
3096;BME280;1558;42.700;23.360;2023-01-25T00:13:13;96478.03;;;1.79;100.00
3096;BME280;1558;42.700;23.360;2023-01-25T00:15:40;96471.25;;;1.71;100.00
3096;BME280;1558;42.700;23.360;2023-01-25T00:18:08;96441.34;;;1.38;100.00
3096;BME280;1558;42.700;23.360;2023-01-25T00:20:36;96476.16;;;1.58;100.00
3096;BME280;1558;42.700;23.360;2023-01-25T00:23:04;96460.00;;;1.43;100.00
3096;BME280;1558;42.700;23.360;2023-01-25T00:25:32;96463.03;;;1.51;100.00
3096;BME280;1558;42.700;23.360;2023-01-25T00:28:00;96450.31;;;1.53;100.00
3096;BME280;1558;42.700;23.360;2023-01-25T00:30:29;96467.38;;;1.57;100.00
3096;BME280;1558;42.700;23.360;2023-01-25T00:33:01;96466.41;;;1.63;100.00
3096;BME280;1558;42.700;23.360;2023-01-25T00:35:33;96471.22;;;1.66;100.00
3096;BME280;1558;42.700;23.360;2023-01-25T00:38:05;96450.56;;;1.52;100.00
3096;BME280;1558;42.700;23.360;2023-01-25T00:40:42;96473.41;;;1.53;100.00
3096;BME280;1558;42.700;23.360;2023-01-25T00:43:10;96471.97;;;1.45;100.00
3096;BME280;1558;42.700;23.360;2023-01-25T00:45:41;96474.06;;;1.43;100.00
3096;BME280;1558;42.700;23.360;2023-01-25T00:48:09;96470.53;;;1.54;100.00
3096;BME280;1558;42.700;23.360;2023-01-25T00:50:37;96470.53;;;1.54;100.00
3096;BME280;1558;42.700;23.360;2023-01-25T00:53:05;96471.94;;;1.62;100.00
3096;BME280;1558;42.700;23.360;2023-01-25T00:55:33;96458.34;;;1.58;100.00
3096;BME280;1558;42.700;23.360;2023-01-25T00:58:01;96473.88;;;1.66;100.00
3096;BME280;1558;42.700;23.360;2023-01-25T01:00:28;96474.94;;;1.65;100.00
3096;BME280;1558;42.700;23.360;2023-01-25T01:02:58;96295.19;;;0.56;100.00
3096;BME280;1558;42.700;23.360;2023-01-25T01:05:26;96451.19;;;1.59;100.00
3096;BME280;1558;42.700;23.360;2023-01-25T01:07:55;96467.00;;;1.70;100.00
3096;BME280;1558;42.700;23.360;2023-01-25T01:10:22;96465.84;;;1.61;100.00
3096;BME280;1558;42.700;23.360;2023-01-25T01:12:50;96462.63;;;1.59;100.00
3096;BME280;1558;42.700;23.360;2023-01-25T01:15:18;96468.25;;;1.63;100.00
3096;BME280;1558;42.700;23.360;2023-01-25T01:17:47;96453.59;;;1.60;100.00
3096;BME280;1558;42.700;23.360;2023-01-25T01:20:16;96461.97;;;1.69;100.00
3096;BME280;1558;42.700;23.360;2023-01-25T01:22:44;96463.47;;;1.65;100.00
3096;BME280;1558;42.700;23.360;2023-01-25T01:25:12;96447.16;;;1.56;100.00
3096;BME280;1558;42.700;23.360;2023-01-25T01:27:40;96457.94;;;1.66;100.00
3096;BME280;1558;42.700;23.360;2023-01-25T01:30:09;96454.22;;;1.67;100.00
3096;BME280;1558;42.700;23.360;2023-01-25T01:32:37;96452.41;;;1.51;100.00
3096;BME280;1558;42.700;23.360;2023-01-25T01:35:06;96456.28;;;1.44;100.00
3096;BME280;1558;42.700;23.360;2023-01-25T01:37:36;96454.44;;;1.44;100.00
3096;BME280;1558;42.700;23.360;2023-01-25T01:40:04;96429.63;;;1.38;100.00
3096;BME280;1558;42.700;23.360;2023-01-25T01:42:32;96451.13;;;1.54;100.00
3096;BME280;1558;42.700;23.360;2023-01-25T01:45:00;96445.72;;;1.49;100.00
3096;BME280;1558;42.700;23.360;2023-01-25T01:47:33;96445.97;;;1.47;100.00
3096;BME280;1558;42.700;23.360;2023-01-25T01:50:22;96440.75;;;1.52;100.00
3096;BME280;1558;42.700;23.360;2023-01-25T01:52:52;96431.34;;;1.66;100.00
3096;BME280;1558;42.700;23.360;2023-01-25T01:55:21;96431.06;;;1.46;100.00
3096;BME280;1558;42.700;23.360;2023-01-25T01:57:52;96419.69;;;1.29;100.00
3096;BME280;1558;42.700;23.360;2023-01-25T02:00:25;96401.00;;;1.24;100.00
3096;BME280;1558;42.700;23.360;2023-01-25T02:02:56;96438.94;;;1.58;100.00
3096;BME280;1558;42.700;23.360;2023-01-25T02:05:30;96446.97;;;1.63;100.00
3096;BME280;1558;42.700;23.360;2023-01-25T02:08:02;96445.06;;;1.58;100.00
3096;BME280;1558;42.700;23.360;2023-01-25T02:10:32;96442.03;;;1.50;100.00
3096;BME280;1558;42.700;23.360;2023-01-25T02:13:01;96423.84;;;1.42;100.00
3096;BME280;1558;42.700;23.360;2023-01-25T02:15:37;96447.16;;;1.56;100.00
3096;BME280;1558;42.700;23.360;2023-01-25T02:18:07;96398.56;;;1.39;100.00
3096;BME280;1558;42.700;23.360;2023-01-25T02:20:37;96447.84;;;1.68;100.00
3096;BME280;1558;42.700;23.360;2023-01-25T02:23:13;96443.56;;;1.67;100.00
3096;BME280;1558;42.700;23.360;2023-01-25T02:25:44;96442.94;;;1.60;100.00
3096;BME280;1558;42.700;23.360;2023-01-25T02:28:15;96442.47;;;1.63;100.00
3096;BME280;1558;42.700;23.360;2023-01-25T02:30:45;96381.44;;;1.30;100.00
3096;BME280;1558;42.700;23.360;2023-01-25T02:33:13;96438.88;;;1.74;100.00
3096;BME280;1558;42.700;23.360;2023-01-25T02:35:43;96443.22;;;1.80;100.00
3096;BME280;1558;42.700;23.360;2023-01-25T02:38:13;96368.66;;;1.27;100.00
3096;BME280;1558;42.700;23.360;2023-01-25T02:40:47;96440.16;;;1.72;100.00
3096;BME280;1558;42.700;23.360;2023-01-25T02:43:16;96438.06;;;1.74;100.00
3096;BME280;1558;42.700;23.360;2023-01-25T02:45:48;96438.25;;;1.67;100.00
3096;BME280;1558;42.700;23.360;2023-01-25T02:48:18;96434.31;;;1.70;100.00
3096;BME280;1558;42.700;23.360;2023-01-25T02:50:46;96434.03;;;1.71;100.00
3096;BME280;1558;42.700;23.360;2023-01-25T02:53:14;96437.03;;;1.75;100.00
3096;BME280;1558;42.700;23.360;2023-01-25T02:55:42;96433.63;;;1.79;100.00
3096;BME280;1558;42.700;23.360;2023-01-25T02:58:11;96434.03;;;1.71;100.00
3096;BME280;1558;42.700;23.360;2023-01-25T03:00:39;96437.84;;;1.75;100.00
3096;BME280;1558;42.700;23.360;2023-01-25T03:03:07;96411.06;;;1.60;100.00
3096;BME280;1558;42.700;23.360;2023-01-25T03:05:35;96428.19;;;1.69;100.00
3096;BME280;1558;42.700;23.360;2023-01-25T03:08:03;96424.72;;;1.69;100.00
3096;BME280;1558;42.700;23.360;2023-01-25T03:10:31;96383.00;;;1.26;100.00
3096;BME280;1558;42.700;23.360;2023-01-25T03:12:59;96373.47;;;1.30;100.00
3096;BME280;1558;42.700;23.360;2023-01-25T03:15:28;96435.91;;;1.71;100.00
3096;BME280;1558;42.700;23.360;2023-01-25T03:17:56;96444.75;;;1.76;100.00
3096;BME280;1558;42.700;23.360;2023-01-25T03:20:24;96431.84;;;1.63;100.00
3096;BME280;1558;42.700;23.360;2023-01-25T03:22:52;96438.31;;;1.72;100.00
3096;BME280;1558;42.700;23.360;2023-01-25T03:25:20;96398.00;;;1.37;100.00
3096;BME280;1558;42.700;23.360;2023-01-25T03:27:47;96440.38;;;1.65;100.00
3096;BME280;1558;42.700;23.360;2023-01-25T03:30:15;96431.16;;;1.73;100.00
3096;BME280;1558;42.700;23.360;2023-01-25T03:32:45;96436.22;;;1.74;100.00
3096;BME280;1558;42.700;23.360;2023-01-25T03:35:12;96297.44;;;0.86;100.00
3096;BME280;1558;42.700;23.360;2023-01-25T03:37:40;96422.50;;;1.61;100.00
3096;BME280;1558;42.700;23.360;2023-01-25T03:40:10;96431.16;;;1.73;100.00
3096;BME280;1558;42.700;23.360;2023-01-25T03:42:38;96438.75;;;1.64;100.00
3096;BME280;1558;42.700;23.360;2023-01-25T03:45:06;96426.50;;;1.63;100.00
3096;BME280;1558;42.700;23.360;2023-01-25T03:47:35;96417.00;;;1.67;100.00
3096;BME280;1558;42.700;23.360;2023-01-25T03:50:05;96421.81;;;1.70;100.00
3096;BME280;1558;42.700;23.360;2023-01-25T03:52:37;96428.19;;;1.69;100.00
3096;BME280;1558;42.700;23.360;2023-01-25T03:55:11;96431.03;;;1.63;100.00
3096;BME280;1558;42.700;23.360;2023-01-25T03:57:38;96419.03;;;1.60;100.00
3096;BME280;1558;42.700;23.360;2023-01-25T04:00:08;96337.56;;;1.06;100.00
3096;BME280;1558;42.700;23.360;2023-01-25T04:02:38;96422.16;;;1.57;100.00
3096;BME280;1558;42.700;23.360;2023-01-25T04:05:08;96423.66;;;1.48;100.00
3096;BME280;1558;42.700;23.360;2023-01-25T04:07:39;96416.22;;;1.50;100.00
3096;BME280;1558;42.700;23.360;2023-01-25T04:10:08;96414.66;;;1.49;100.00
3096;BME280;1558;42.700;23.360;2023-01-25T04:12:36;96425.41;;;1.59;100.00
3096;BME280;1558;42.700;23.360;2023-01-25T04:15:05;96423.06;;;1.63;100.00
3096;BME280;1558;42.700;23.360;2023-01-25T04:17:34;96393.91;;;1.29;100.00
3096;BME280;1558;42.700;23.360;2023-01-25T04:20:01;96421.13;;;1.58;100.00
3096;BME280;1558;42.700;23.360;2023-01-25T04:22:31;96419.28;;;1.59;100.00
3096;BME280;1558;42.700;23.360;2023-01-25T04:24:59;96419.22;;;1.54;100.00
3096;BME280;1558;42.700;23.360;2023-01-25T04:27:27;96369.59;;;1.38;100.00
3096;BME280;1558;42.700;23.360;2023-01-25T04:29:55;96415.13;;;1.46;100.00
3096;BME280;1558;42.700;23.360;2023-01-25T04:32:23;96422.28;;;1.46;100.00
3096;BME280;1558;42.700;23.360;2023-01-25T04:34:51;96378.56;;;1.15;100.00
3096;BME280;1558;42.700;23.360;2023-01-25T04:37:19;96421.19;;;1.42;100.00
3096;BME280;1558;42.700;23.360;2023-01-25T04:39:48;96422.16;;;1.35;100.00
3096;BME280;1558;42.700;23.360;2023-01-25T04:42:18;96426.47;;;1.20;100.00
3096;BME280;1558;42.700;23.360;2023-01-25T04:44:46;96423.72;;;1.15;100.00
3096;BME280;1558;42.700;23.360;2023-01-25T04:47:14;96418.50;;;1.20;100.00
3096;BME280;1558;42.700;23.360;2023-01-25T04:49:42;96433.03;;;1.34;100.00
3096;BME280;1558;42.700;23.360;2023-01-25T04:52:09;96425.31;;;1.32;100.00
3096;BME280;1558;42.700;23.360;2023-01-25T04:54:37;96429.00;;;1.31;100.00
3096;BME280;1558;42.700;23.360;2023-01-25T04:57:07;96424.78;;;1.30;100.00
3096;BME280;1558;42.700;23.360;2023-01-25T04:59:35;96426.06;;;1.28;100.00
3096;BME280;1558;42.700;23.360;2023-01-25T05:02:03;96418.56;;;1.25;100.00
3096;BME280;1558;42.700;23.360;2023-01-25T05:04:31;96430.75;;;1.21;100.00
3096;BME280;1558;42.700;23.360;2023-01-25T05:06:59;96424.28;;;1.17;100.00
3096;BME280;1558;42.700;23.360;2023-01-25T05:09:27;96423.50;;;1.16;100.00
3096;BME280;1558;42.700;23.360;2023-01-25T05:11:55;96413.03;;;1.10;100.00
3096;BME280;1558;42.700;23.360;2023-01-25T05:14:24;96424.72;;;1.09;100.00
3096;BME280;1558;42.700;23.360;2023-01-25T05:16:52;96426.94;;;1.17;100.00
3096;BME280;1558;42.700;23.360;2023-01-25T05:19:20;96405.47;;;1.18;100.00
3096;BME280;1558;42.700;23.360;2023-01-25T05:21:48;96422.66;;;1.32;100.00
3096;BME280;1558;42.700;23.360;2023-01-25T05:24:25;96417.34;;;1.32;100.00
3096;BME280;1558;42.700;23.360;2023-01-25T05:26:54;96416.28;;;1.33;100.00
3096;BME280;1558;42.700;23.360;2023-01-25T05:29:29;96349.44;;;0.82;100.00
3096;BME280;1558;42.700;23.360;2023-01-25T05:31:57;96423.69;;;1.31;100.00
3096;BME280;1558;42.700;23.360;2023-01-25T05:34:26;96386.53;;;1.15;100.00
3096;BME280;1558;42.700;23.360;2023-01-25T05:36:54;96416.59;;;1.37;100.00
3096;BME280;1558;42.700;23.360;2023-01-25T05:39:22;96409.38;;;1.32;100.00
3096;BME280;1558;42.700;23.360;2023-01-25T05:41:50;96423.50;;;1.38;100.00
3096;BME280;1558;42.700;23.360;2023-01-25T05:44:18;96365.66;;;1.02;100.00
3096;BME280;1558;42.700;23.360;2023-01-25T05:46:47;96414.66;;;1.49;100.00
3096;BME280;1558;42.700;23.360;2023-01-25T05:49:16;96434.78;;;1.45;100.00
3096;BME280;1558;42.700;23.360;2023-01-25T05:51:44;96428.16;;;1.48;100.00
3096;BME280;1558;42.700;23.360;2023-01-25T05:54:14;96432.19;;;1.50;100.00
3096;BME280;1558;42.700;23.360;2023-01-25T05:56:42;96432.69;;;1.47;100.00
3096;BME280;1558;42.700;23.360;2023-01-25T05:59:11;96392.88;;;1.30;100.00
3096;BME280;1558;42.700;23.360;2023-01-25T06:01:39;96436.19;;;1.53;100.00
3096;BME280;1558;42.700;23.360;2023-01-25T06:04:08;96431.69;;;1.53;100.00
3096;BME280;1558;42.700;23.360;2023-01-25T06:06:39;96430.09;;;1.52;100.00
3096;BME280;1558;42.700;23.360;2023-01-25T06:09:11;96426.38;;;1.53;100.00
3096;BME280;1558;42.700;23.360;2023-01-25T06:11:42;96387.09;;;1.17;100.00
3096;BME280;1558;42.700;23.360;2023-01-25T06:14:10;96438.50;;;1.44;100.00
3096;BME280;1558;42.700;23.360;2023-01-25T06:16:38;96421.94;;;1.37;100.00
3096;BME280;1558;42.700;23.360;2023-01-25T06:19:08;96434.00;;;1.45;100.00
3096;BME280;1558;42.700;23.360;2023-01-25T06:21:36;96441.56;;;1.36;100.00
3096;BME280;1558;42.700;23.360;2023-01-25T06:24:04;96422.59;;;1.27;100.00
3096;BME280;1558;42.700;23.360;2023-01-25T06:26:32;96436.44;;;1.29;100.00
3096;BME280;1558;42.700;23.360;2023-01-25T06:29:00;96380.97;;;0.95;100.00
3096;BME280;1558;42.700;23.360;2023-01-25T06:31:31;96441.94;;;1.23;100.00
3096;BME280;1558;42.700;23.360;2023-01-25T06:34:00;96436.63;;;1.23;100.00
3096;BME280;1558;42.700;23.360;2023-01-25T06:36:33;96440.63;;;1.25;100.00
3096;BME280;1558;42.700;23.360;2023-01-25T06:39:02;96438.72;;;1.21;100.00
3096;BME280;1558;42.700;23.360;2023-01-25T06:41:30;96431.69;;;1.15;100.00
3096;BME280;1558;42.700;23.360;2023-01-25T06:43:58;96402.84;;;1.02;100.00
3096;BME280;1558;42.700;23.360;2023-01-25T06:46:26;96428.94;;;1.26;100.00
3096;BME280;1558;42.700;23.360;2023-01-25T06:48:54;96408.41;;;1.22;100.00
3096;BME280;1558;42.700;23.360;2023-01-25T06:51:22;96426.75;;;1.40;100.00
3096;BME280;1558;42.700;23.360;2023-01-25T06:53:51;96433.66;;;1.41;100.00
3096;BME280;1558;42.700;23.360;2023-01-25T06:56:20;96440.28;;;1.38;100.00
3096;BME280;1558;42.700;23.360;2023-01-25T06:58:49;96429.16;;;1.42;100.00
3096;BME280;1558;42.700;23.360;2023-01-25T07:01:20;96414.69;;;1.32;100.00
3096;BME280;1558;42.700;23.360;2023-01-25T07:03:54;96438.56;;;1.49;100.00
3096;BME280;1558;42.700;23.360;2023-01-25T07:06:22;96426.75;;;1.40;100.00
3096;BME280;1558;42.700;23.360;2023-01-25T07:08:52;96436.38;;;1.46;100.00
3096;BME280;1558;42.700;23.360;2023-01-25T07:11:20;96434.00;;;1.45;100.00
3096;BME280;1558;42.700;23.360;2023-01-25T07:13:48;96425.94;;;1.40;100.00
3096;BME280;1558;42.700;23.360;2023-01-25T07:16:17;96264.81;;;0.47;100.00
3096;BME280;1558;42.700;23.360;2023-01-25T07:18:45;96428.91;;;1.43;100.00
3096;BME280;1558;42.700;23.360;2023-01-25T07:21:15;96433.84;;;1.34;100.00
3096;BME280;1558;42.700;23.360;2023-01-25T07:23:46;96438.50;;;1.44;100.00
3096;BME280;1558;42.700;23.360;2023-01-25T07:26:18;96429.63;;;1.38;100.00
3096;BME280;1558;42.700;23.360;2023-01-25T07:28:46;96444.91;;;1.48;100.00
3096;BME280;1558;42.700;23.360;2023-01-25T07:31:15;96412.69;;;1.23;100.00
3096;BME280;1558;42.700;23.360;2023-01-25T07:33:46;96391.84;;;1.15;100.00
3096;BME280;1558;42.700;23.360;2023-01-25T07:36:15;96436.25;;;1.36;100.00
3096;BME280;1558;42.700;23.360;2023-01-25T07:38:43;96451.53;;;1.46;100.00
3096;BME280;1558;42.700;23.360;2023-01-25T07:41:11;96435.34;;;1.47;100.00
3096;BME280;1558;42.700;23.360;2023-01-25T07:43:43;96454.69;;;1.64;100.00
3096;BME280;1558;42.700;23.360;2023-01-25T07:46:12;96446.16;;;1.62;100.00
3096;BME280;1558;42.700;23.360;2023-01-25T07:48:45;96452.03;;;1.64;100.00
3096;BME280;1558;42.700;23.360;2023-01-25T07:51:14;96429.97;;;1.42;100.00
3096;BME280;1558;42.700;23.360;2023-01-25T07:53:54;96457.03;;;1.39;100.00
3096;BME280;1558;42.700;23.360;2023-01-25T07:56:25;96445.09;;;1.42;100.00
3096;BME280;1558;42.700;23.360;2023-01-25T07:58:55;96452.34;;;1.46;100.00
3096;BME280;1558;42.700;23.360;2023-01-25T08:01:24;96456.34;;;1.49;100.00
3096;BME280;1558;42.700;23.360;2023-01-25T08:03:53;96453.56;;;1.38;100.00
3096;BME280;1558;42.700;23.360;2023-01-25T08:06:23;96454.63;;;1.38;100.00
3096;BME280;1558;42.700;23.360;2023-01-25T08:08:53;96453.81;;;1.37;100.00
3096;BME280;1558;42.700;23.360;2023-01-25T08:11:23;96425.81;;;1.29;100.00
3096;BME280;1558;42.700;23.360;2023-01-25T08:13:53;96429.72;;;1.44;100.00
3096;BME280;1558;42.700;23.360;2023-01-25T08:16:23;96422.22;;;1.41;100.00
3096;BME280;1558;42.700;23.360;2023-01-25T08:18:54;96447.97;;;1.57;100.00
3096;BME280;1558;42.700;23.360;2023-01-25T08:21:23;96449.28;;;1.54;100.00
3096;BME280;1558;42.700;23.360;2023-01-25T08:23:56;96446.53;;;1.49;100.00
3096;BME280;1558;42.700;23.360;2023-01-25T08:26:26;96443.06;;;1.49;100.00
3096;BME280;1558;42.700;23.360;2023-01-25T08:28:56;96411.78;;;1.34;100.00
3096;BME280;1558;42.700;23.360;2023-01-25T08:31:26;96433.47;;;1.48;100.00
3096;BME280;1558;42.700;23.360;2023-01-25T08:33:55;96387.72;;;1.24;100.00
3096;BME280;1558;42.700;23.360;2023-01-25T08:36:23;96449.88;;;1.61;100.00
3096;BME280;1558;42.700;23.360;2023-01-25T08:38:54;96449.22;;;1.71;100.00
3096;BME280;1558;42.700;23.360;2023-01-25T08:41:23;96378.78;;;1.30;100.00
3096;BME280;1558;42.700;23.360;2023-01-25T08:43:52;96436.16;;;1.69;100.00
3096;BME280;1558;42.700;23.360;2023-01-25T08:46:23;96431.84;;;1.63;100.00
3096;BME280;1558;42.700;23.360;2023-01-25T08:48:54;96432.66;;;1.64;100.00
3096;BME280;1558;42.700;23.360;2023-01-25T08:51:23;96434.78;;;1.67;100.00
3096;BME280;1558;42.700;23.360;2023-01-25T08:53:51;96435.66;;;1.72;100.00
3096;BME280;1558;42.700;23.360;2023-01-25T08:56:19;96423.53;;;1.81;100.00
3096;BME280;1558;42.700;23.360;2023-01-25T08:58:49;96421.94;;;1.80;100.00
3096;BME280;1558;42.700;23.360;2023-01-25T09:01:18;96447.53;;;1.65;100.00
3096;BME280;1558;42.700;23.360;2023-01-25T09:03:49;96419.22;;;1.54;100.00
3096;BME280;1558;42.700;23.360;2023-01-25T09:06:17;96419.56;;;1.62;100.00
3096;BME280;1558;42.700;23.360;2023-01-25T09:08:46;96437.78;;;1.70;100.00
3096;BME280;1558;42.700;23.360;2023-01-25T09:11:16;96440.69;;;1.69;100.00
3096;BME280;1558;42.700;23.360;2023-01-25T09:13:46;96434.84;;;1.72;100.00
3096;BME280;1558;42.700;23.360;2023-01-25T09:16:18;96402.88;;;1.45;100.00
3096;BME280;1558;42.700;23.360;2023-01-25T09:18:49;96429.25;;;1.68;100.00
3096;BME280;1558;42.700;23.360;2023-01-25T09:21:18;96428.97;;;1.70;100.00
3096;BME280;1558;42.700;23.360;2023-01-25T09:23:47;96413.44;;;1.62;100.00
3096;BME280;1558;42.700;23.360;2023-01-25T09:26:30;96420.66;;;1.61;100.00
3096;BME280;1558;42.700;23.360;2023-01-25T09:28:58;96402.03;;;1.61;100.00
3096;BME280;1558;42.700;23.360;2023-01-25T09:31:26;96390.16;;;1.47;100.00
3096;BME280;1558;42.700;23.360;2023-01-25T09:33:59;96411.06;;;1.60;100.00
3096;BME280;1558;42.700;23.360;2023-01-25T09:36:27;96399.94;;;1.63;100.00
3096;BME280;1558;42.700;23.360;2023-01-25T09:38:55;96386.56;;;1.58;100.00
3096;BME280;1558;42.700;23.360;2023-01-25T09:41:45;96384.97;;;1.57;100.00
3096;BME280;1558;42.700;23.360;2023-01-25T09:44:30;96357.88;;;1.60;100.00
3096;BME280;1558;42.700;23.360;2023-01-25T09:47:11;96386.16;;;1.93;100.00
3096;BME280;1558;42.700;23.360;2023-01-25T09:49:59;96380.66;;;1.99;100.00
3096;BME280;1558;42.700;23.360;2023-01-25T09:53:11;96356.53;;;2.06;100.00
3096;BME280;1558;42.700;23.360;2023-01-25T09:55:43;96290.78;;;1.75;100.00
3096;BME280;1558;42.700;23.360;2023-01-25T09:58:19;96365.44;;;2.22;100.00
3096;BME280;1558;42.700;23.360;2023-01-25T10:00:49;96298.56;;;1.81;100.00
3096;BME280;1558;42.700;23.360;2023-01-25T10:03:21;96348.97;;;2.25;100.00
3096;BME280;1558;42.700;23.360;2023-01-25T10:05:56;96342.59;;;2.26;100.00
3096;BME280;1558;42.700;23.360;2023-01-25T10:08:31;96341.75;;;2.52;100.00
3096;BME280;1558;42.700;23.360;2023-01-25T10:11:05;96297.44;;;2.36;100.00
3096;BME280;1558;42.700;23.360;2023-01-25T10:13:34;96349.88;;;2.72;100.00
3096;BME280;1558;42.700;23.360;2023-01-25T10:16:05;96310.84;;;2.51;100.00
3096;BME280;1558;42.700;23.360;2023-01-25T10:18:57;96321.13;;;2.74;100.00
3096;BME280;1558;42.700;23.360;2023-01-25T10:21:31;96328.19;;;2.95;100.00
3096;BME280;1558;42.700;23.360;2023-01-25T10:24:25;96324.44;;;2.91;100.00
3096;BME280;1558;42.700;23.360;2023-01-25T10:26:56;96148.88;;;1.86;100.00
3096;BME280;1558;42.700;23.360;2023-01-25T10:29:27;96314.09;;;2.95;100.00
3096;BME280;1558;42.700;23.360;2023-01-25T10:32:00;96310.06;;;2.97;100.00
3096;BME280;1558;42.700;23.360;2023-01-25T10:34:32;96313.34;;;3.09;100.00
3096;BME280;1558;42.700;23.360;2023-01-25T10:37:24;96308.00;;;3.09;100.00
3096;BME280;1558;42.700;23.360;2023-01-25T10:39:57;96308.31;;;3.13;100.00
3096;BME280;1558;42.700;23.360;2023-01-25T10:42:32;96289.94;;;3.11;100.00
3096;BME280;1558;42.700;23.360;2023-01-25T10:45:10;96274.69;;;3.02;100.00
3096;BME280;1558;42.700;23.360;2023-01-25T10:47:40;96234.53;;;2.66;100.00
3096;BME280;1558;42.700;23.360;2023-01-25T10:50:43;96291.22;;;3.04;100.00
3096;BME280;1558;42.700;23.360;2023-01-25T10:53:28;96294.44;;;3.11;100.00
3096;BME280;1558;42.700;23.360;2023-01-25T10:56:00;96291.19;;;2.99;100.00
3096;BME280;1558;42.700;23.360;2023-01-25T10:58:32;96289.25;;;2.89;100.00
3096;BME280;1558;42.700;23.360;2023-01-25T11:01:01;96281.81;;;2.91;100.00
3096;BME280;1558;42.700;23.360;2023-01-25T11:03:34;96274.41;;;3.03;100.00
3096;BME280;1558;42.700;23.360;2023-01-25T11:06:04;96254.97;;;3.03;100.00
3096;BME280;1558;42.700;23.360;2023-01-25T11:08:36;96244.06;;;3.09;100.00
3096;BME280;1558;42.700;23.360;2023-01-25T11:11:31;96268.03;;;3.09;100.00
3096;BME280;1558;42.700;23.360;2023-01-25T11:14:10;96222.13;;;2.87;100.00
3096;BME280;1558;42.700;23.360;2023-01-25T11:16:44;96263.03;;;3.18;100.00
3096;BME280;1558;42.700;23.360;2023-01-25T11:19:30;96261.84;;;2.94;100.00
3096;BME280;1558;42.700;23.360;2023-01-25T11:21:59;96239.22;;;2.96;100.00
3096;BME280;1558;42.700;23.360;2023-01-25T11:24:30;96242.72;;;3.12;100.00
3096;BME280;1558;42.700;23.360;2023-01-25T11:27:14;96253.63;;;3.00;100.00
3096;BME280;1558;42.700;23.360;2023-01-25T11:29:43;96224.25;;;2.85;100.00
3096;BME280;1558;42.700;23.360;2023-01-25T11:32:17;96221.63;;;2.95;100.00
3096;BME280;1558;42.700;23.360;2023-01-25T11:34:50;96254.69;;;2.99;100.00
3096;BME280;1558;42.700;23.360;2023-01-25T11:37:30;96195.41;;;2.67;100.00
3096;BME280;1558;42.700;23.360;2023-01-25T11:40:12;96210.91;;;2.80;100.00
3096;BME280;1558;42.700;23.360;2023-01-25T11:42:50;96232.88;;;3.12;100.00
3096;BME280;1558;42.700;23.360;2023-01-25T11:48:31;96219.78;;;3.01;100.00
3096;BME280;1558;42.700;23.360;2023-01-25T11:51:04;96184.00;;;2.82;100.00
3096;BME280;1558;42.700;23.360;2023-01-25T11:53:45;96208.28;;;2.90;100.00
3096;BME280;1558;42.700;23.360;2023-01-25T11:56:27;96207.25;;;2.96;100.00
3096;BME280;1558;42.700;23.360;2023-01-25T11:59:12;96183.75;;;2.88;100.00
3096;BME280;1558;42.700;23.360;2023-01-25T12:01:56;96177.44;;;2.99;100.00
3096;BME280;1558;42.700;23.360;2023-01-25T12:04:55;96199.00;;;3.03;100.00
3096;BME280;1558;42.700;23.360;2023-01-25T12:07:50;96145.38;;;2.79;100.00
3096;BME280;1558;42.700;23.360;2023-01-25T12:10:25;96205.63;;;2.95;100.00
3096;BME280;1558;42.700;23.360;2023-01-25T12:13:04;96191.78;;;2.93;100.00
3096;BME280;1558;42.700;23.360;2023-01-25T12:16:08;96189.13;;;2.93;100.00
3096;BME280;1558;42.700;23.360;2023-01-25T12:21:50;96166.72;;;2.89;100.00
3096;BME280;1558;42.700;23.360;2023-01-25T12:24:34;96172.03;;;2.84;100.00
3096;BME280;1558;42.700;23.360;2023-01-25T12:27:16;96150.16;;;2.72;100.00
3096;BME280;1558;42.700;23.360;2023-01-25T12:29:52;96150.69;;;2.74;100.00
3096;BME280;1558;42.700;23.360;2023-01-25T12:32:34;96169.41;;;2.89;100.00
3096;BME280;1558;42.700;23.360;2023-01-25T12:35:21;96160.06;;;2.87;100.00
3096;BME280;1558;42.700;23.360;2023-01-25T12:37:56;96173.66;;;2.85;100.00
3096;BME280;1558;42.700;23.360;2023-01-25T12:40:40;96170.97;;;2.90;100.00
3096;BME280;1558;42.700;23.360;2023-01-25T12:43:15;96164.03;;;2.84;100.00
3096;BME280;1558;42.700;23.360;2023-01-25T12:45:48;96161.16;;;3.01;100.00
3096;BME280;1558;42.700;23.360;2023-01-25T12:48:20;96169.41;;;2.94;100.00
3096;BME280;1558;42.700;23.360;2023-01-25T12:50:53;96166.50;;;3.01;100.00
3096;BME280;1558;42.700;23.360;2023-01-25T12:53:26;96155.78;;;2.86;100.00
3096;BME280;1558;42.700;23.360;2023-01-25T12:55:55;96121.94;;;2.76;100.00
3096;BME280;1558;42.700;23.360;2023-01-25T12:58:31;96152.09;;;2.92;100.00
3096;BME280;1558;42.700;23.360;2023-01-25T13:01:10;96153.41;;;2.89;100.00
3096;BME280;1558;42.700;23.360;2023-01-25T13:03:55;96138.25;;;2.95;100.00
3096;BME280;1558;42.700;23.360;2023-01-25T13:06:33;96156.66;;;3.06;100.00
3096;BME280;1558;42.700;23.360;2023-01-25T13:09:12;96138.00;;;3.01;100.00
3096;BME280;1558;42.700;23.360;2023-01-25T13:11:45;96138.00;;;3.01;100.00
3096;BME280;1558;42.700;23.360;2023-01-25T13:14:28;96133.75;;;3.05;100.00
3096;BME280;1558;42.700;23.360;2023-01-25T13:17:20;96131.34;;;2.99;100.00
3096;BME280;1558;42.700;23.360;2023-01-25T13:19:49;96142.22;;;2.97;100.00
3096;BME280;1558;42.700;23.360;2023-01-25T13:25:29;96127.28;;;2.86;100.00
3096;BME280;1558;42.700;23.360;2023-01-25T13:28:39;96130.53;;;2.98;100.00
3096;BME280;1558;42.700;23.360;2023-01-25T13:31:07;96127.84;;;2.98;100.00
3096;BME280;1558;42.700;23.360;2023-01-25T13:33:37;96136.63;;;2.89;100.00
3096;BME280;1558;42.700;23.360;2023-01-25T13:36:43;96125.16;;;2.78;100.00
3096;BME280;1558;42.700;23.360;2023-01-25T13:39:40;96145.38;;;2.79;100.00
3096;BME280;1558;42.700;23.360;2023-01-25T13:42:20;96129.34;;;2.64;100.00
3096;BME280;1558;42.700;23.360;2023-01-25T13:44:49;96104.25;;;2.45;100.00